Time;durP1;ratioP1;P1;durP2;ratioP2;P2;SDS_P1;SDS_P2;PMS_P1;PMS_P2;Temp;Humidity;BMP_temperature;BMP_pressure;BME280_temperature;BME280_humidity;BME280_pressure;Samples;Min_cycle;Max_cycle;Signal;HPM_P1;HPM_P2
2024/03/21 00:02:01;;;;;;;;;33.33;31.33;;;;;;;;4981221;28;45812;-78
2024/03/21 00:04:27;;;;;;;;;35.33;30.33;;;;;;;;4981211;28;45427;-79
2024/03/21 00:06:52;;;;;;;;;31.33;30.00;;;;;;;;4999242;28;45265;-79
2024/03/21 00:09:17;;;;;;;;;33.67;32.00;;;;;;;;4999414;28;46468;-79
2024/03/21 00:11:42;;;;;;;;;28.33;27.00;;;;;;;;4981116;28;45493;-78
2024/03/21 00:14:08;;;;;;;;;33.00;28.67;;;;;;;;4999158;28;45312;-78
2024/03/21 00:16:33;;;;;;;;;27.00;27.00;;;;;;;;4998292;28;45285;-78
2024/03/21 00:18:59;;;;;;;;;36.00;31.67;;;;;;;;4981105;28;46557;-78
2024/03/21 00:21:24;;;;;;;;;36.33;32.00;;;;;;;;4998751;28;45320;-78
2024/03/21 00:23:49;;;;;;;;;33.67;32.00;;;;;;;;4999303;28;45310;-78
2024/03/21 00:26:14;;;;;;;;;35.00;31.33;;;;;;;;4998848;28;45393;-79
2024/03/21 00:28:41;;;;;;;;;39.67;32.67;;;;;;;;4981288;28;47171;-79
2024/03/21 00:31:06;;;;;;;;;37.33;32.67;;;;;;;;4998834;28;45312;-78
2024/03/21 00:33:31;;;;;;;;;37.33;32.33;;;;;;;;4998746;28;45214;-79
2024/03/21 00:35:56;;;;;;;;;31.67;29.67;;;;;;;;4998879;28;45158;-78
2024/03/21 00:38:22;;;;;;;;;35.67;32.33;;;;;;;;4981145;28;47475;-79
2024/03/21 00:40:47;;;;;;;;;30.67;30.00;;;;;;;;4998150;28;45477;-79
2024/03/21 00:43:12;;;;;;;;;38.00;33.67;;;;;;;;4981015;28;45878;-79
2024/03/21 00:45:37;;;;;;;;;34.00;32.00;;;;;;;;5001282;28;45472;-78
2024/03/21 00:48:02;;;;;;;;;32.33;29.67;;;;;;;;4984466;28;47170;-79
2024/03/21 00:50:31;;;;;;;;;35.67;32.67;;;;;;;;5001524;28;45258;-79
2024/03/21 00:52:56;;;;;;;;;33.67;30.00;;;;;;;;4984606;28;45433;-79
2024/03/21 00:55:21;;;;;;;;;34.33;31.33;;;;;;;;5001701;28;45305;-79
2024/03/21 00:57:46;;;;;;;;;33.33;30.33;;;;;;;;5012834;28;45334;-79
2024/03/21 01:00:13;;;;;;;;;34.33;32.00;;;;;;;;5021815;28;45340;-79
2024/03/21 01:02:39;;;;;;;;;36.00;32.33;;;;;;;;5021808;28;45302;-79
2024/03/21 01:05:06;;;;;;;;;35.00;31.67;;;;;;;;5003377;28;46120;-79
2024/03/21 01:07:31;;;;;;;;;34.67;32.00;;;;;;;;5021516;28;45482;-78
2024/03/21 01:09:56;;;;;;;;;31.00;30.00;;;;;;;;5003680;28;45210;-79
2024/03/21 01:12:21;;;;;;;;;35.33;31.33;;;;;;;;4995048;28;45263;-79
2024/03/21 01:14:47;;;;;;;;;33.00;30.00;;;;;;;;4983711;28;46879;-79
2024/03/21 01:17:12;;;;;;;;;30.33;30.00;;;;;;;;5001694;28;46354;-79
2024/03/21 01:19:39;;;;;;;;;32.00;30.33;;;;;;;;5001725;28;45716;-79
2024/03/21 01:22:04;;;;;;;;;34.33;29.33;;;;;;;;4984284;28;45311;-78
2024/03/21 01:24:29;;;;;;;;;29.67;29.67;;;;;;;;4983763;28;46493;-78
2024/03/21 01:26:54;;;;;;;;;31.67;30.00;;;;;;;;4983565;28;47626;-78
2024/03/21 01:29:19;;;;;;;;;33.67;30.67;;;;;;;;5001671;28;45273;-79
2024/03/21 01:31:45;;;;;;;;;31.00;30.00;;;;;;;;4983699;28;45287;-79
2024/03/21 01:34:10;;;;;;;;;30.33;27.67;;;;;;;;5001495;28;45824;-79
2024/03/21 01:36:45;;;;;;;;;34.33;31.67;;;;;;;;4983648;28;47976;-78
2024/03/21 01:39:10;;;;;;;;;33.00;31.00;;;;;;;;5001250;28;45285;-78
2024/03/21 01:41:35;;;;;;;;;35.33;31.67;;;;;;;;5001213;28;45477;-78
2024/03/21 01:44:00;;;;;;;;;32.00;30.00;;;;;;;;5001368;28;45273;-78
2024/03/21 01:46:26;;;;;;;;;30.00;27.33;;;;;;;;5001210;28;46195;-79
2024/03/21 01:48:51;;;;;;;;;31.00;29.33;;;;;;;;5001019;28;45338;-79
2024/03/21 01:51:20;;;;;;;;;31.33;30.00;;;;;;;;4983650;28;45294;-79
2024/03/21 01:53:47;;;;;;;;;29.00;27.33;;;;;;;;4983620;28;46985;-79
2024/03/21 01:56:12;;;;;;;;;33.67;29.00;;;;;;;;5000569;28;46133;-79
2024/03/21 01:58:37;;;;;;;;;28.67;28.00;;;;;;;;5018648;28;45400;-78
2024/03/21 02:01:15;;;;;;;;;27.00;26.33;;;;;;;;5000906;28;45276;-78
2024/03/21 02:03:40;;;;;;;;;36.00;31.33;;;;;;;;5000233;28;45336;-79
2024/03/21 02:06:06;;;;;;;;;27.00;27.00;;;;;;;;4983108;28;48291;-79
2024/03/21 02:08:31;;;;;;;;;33.67;30.00;;;;;;;;5000830;28;45506;-78
2024/03/21 02:10:57;;;;;;;;;26.67;26.33;;;;;;;;4982617;28;45350;-78
2024/03/21 02:13:22;;;;;;;;;32.33;29.67;;;;;;;;5000652;28;45581;-78
2024/03/21 02:15:47;;;;;;;;;28.00;27.33;;;;;;;;5000906;28;45395;-78
2024/03/21 02:18:12;;;;;;;;;27.67;27.67;;;;;;;;5000869;28;45273;-79
2024/03/21 02:20:37;;;;;;;;;30.00;29.67;;;;;;;;5000828;28;45356;-79
2024/03/21 02:23:03;;;;;;;;;27.00;27.00;;;;;;;;4983073;28;45850;-79
2024/03/21 02:25:28;;;;;;;;;29.00;28.00;;;;;;;;5000535;28;46118;-78
2024/03/21 02:27:53;;;;;;;;;29.00;27.00;;;;;;;;4982933;28;45312;-78
2024/03/21 02:30:18;;;;;;;;;32.33;30.00;;;;;;;;4982966;28;45272;-78
2024/03/21 02:32:43;;;;;;;;;29.33;28.33;;;;;;;;5000334;28;45499;-79
2024/03/21 02:35:08;;;;;;;;;35.00;29.33;;;;;;;;5000390;28;47613;-79
2024/03/21 02:37:34;;;;;;;;;30.33;28.33;;;;;;;;4982933;28;45821;-78
2024/03/21 02:39:59;;;;;;;;;29.00;28.00;;;;;;;;5000768;28;45293;-79
2024/03/21 02:42:24;;;;;;;;;32.67;30.67;;;;;;;;5000360;28;45317;-79
2024/03/21 02:44:50;;;;;;;;;32.33;30.00;;;;;;;;5000420;28;45456;-79
2024/03/21 02:47:16;;;;;;;;;32.33;29.67;;;;;;;;5000468;28;45327;-79
2024/03/21 02:49:41;;;;;;;;;30.33;28.67;;;;;;;;5000360;28;45549;-79
2024/03/21 02:52:07;;;;;;;;;29.33;26.33;;;;;;;;5000224;28;45266;-78
2024/03/21 02:54:32;;;;;;;;;26.33;26.33;;;;;;;;4982261;28;46928;-79
2024/03/21 02:57:04;;;;;;;;;27.33;27.33;;;;;;;;4985418;28;45648;-78
2024/03/21 02:59:32;;;;;;;;;26.67;26.33;;;;;;;;5020108;28;45542;-79
2024/03/21 03:01:57;;;;;;;;;25.00;24.67;;;;;;;;5019921;28;45393;-79
2024/03/21 03:04:22;;;;;;;;;33.33;31.33;;;;;;;;5001779;28;47544;-78
2024/03/21 03:06:47;;;;;;;;;31.00;29.00;;;;;;;;5019238;28;45301;-79
2024/03/21 03:09:13;;;;;;;;;24.67;23.33;;;;;;;;5020036;28;45267;-78
2024/03/21 03:11:38;;;;;;;;;25.33;24.67;;;;;;;;5019214;28;45305;-78
2024/03/21 03:14:04;;;;;;;;;31.67;30.67;;;;;;;;5001939;28;47226;-78
2024/03/21 03:16:29;;;;;;;;;30.67;28.00;;;;;;;;5019839;28;45825;-78
2024/03/21 03:18:54;;;;;;;;;31.33;28.67;;;;;;;;5001992;28;45230;-78
2024/03/21 03:21:20;;;;;;;;;29.33;26.67;;;;;;;;5019698;28;45234;-78
2024/03/21 03:23:45;;;;;;;;;28.33;27.00;;;;;;;;5019661;28;46296;-78
2024/03/21 03:26:10;;;;;;;;;32.33;27.33;;;;;;;;5019682;28;45336;-78
2024/03/21 03:28:35;;;;;;;;;28.00;26.33;;;;;;;;5002058;28;45358;-78
2024/03/21 03:31:00;;;;;;;;;22.00;20.67;;;;;;;;5014782;28;45307;-79
2024/03/21 03:36:09;;;;;;;;;30.00;28.67;;;;;;;;4999384;28;45328;-79
2024/03/21 03:38:34;;;;;;;;;26.67;25.67;;;;;;;;4998621;28;45594;-79
2024/03/21 03:41:00;;;;;;;;;27.67;24.00;;;;;;;;4999434;28;45522;-78
2024/03/21 03:43:25;;;;;;;;;27.67;27.67;;;;;;;;4999588;28;45474;-78
2024/03/21 03:45:50;;;;;;;;;28.33;28.33;;;;;;;;4982013;28;45585;-78
2024/03/21 03:48:15;;;;;;;;;27.00;24.33;;;;;;;;4999734;28;45498;-79
2024/03/21 03:50:40;;;;;;;;;26.67;26.67;;;;;;;;4999391;28;45238;-79
2024/03/21 03:53:05;;;;;;;;;22.67;20.33;;;;;;;;4999683;28;46277;-79
2024/03/21 03:55:31;;;;;;;;;31.67;29.67;;;;;;;;4981561;28;45485;-79
2024/03/21 03:57:56;;;;;;;;;26.67;26.33;;;;;;;;4993499;28;45265;-79
2024/03/21 04:03:25;;;;;;;;;27.33;25.33;;;;;;;;5018854;28;45365;-79
2024/03/21 04:06:01;;;;;;;;;27.33;24.67;;;;;;;;5018906;28;45373;-78
2024/03/21 04:08:27;;;;;;;;;28.00;27.33;;;;;;;;5019195;28;45340;-78
2024/03/21 04:10:54;;;;;;;;;29.67;27.00;;;;;;;;5018453;28;45345;-78
2024/03/21 04:13:19;;;;;;;;;29.33;26.33;;;;;;;;5018964;28;45346;-78
2024/03/21 04:15:44;;;;;;;;;26.67;26.00;;;;;;;;5018918;28;45391;-79
2024/03/21 04:18:10;;;;;;;;;28.33;26.33;;;;;;;;5001325;28;45327;-78
2024/03/21 04:20:35;;;;;;;;;28.67;27.67;;;;;;;;5003528;28;46320;-78
2024/03/21 04:23:00;;;;;;;;;29.33;28.00;;;;;;;;5022352;28;45299;-79
2024/03/21 04:25:25;;;;;;;;;30.00;28.67;;;;;;;;5004285;28;45822;-78
2024/03/21 04:27:50;;;;;;;;;24.67;24.00;;;;;;;;5022629;28;45598;-79
2024/03/21 04:30:16;;;;;;;;;29.67;24.67;;;;;;;;5004359;28;47018;-78
2024/03/21 04:32:41;;;;;;;;;28.00;25.33;;;;;;;;5003195;28;45500;-78
2024/03/21 04:35:07;;;;;;;;;36.00;30.33;;;;;;;;5002329;28;45305;-78
2024/03/21 04:37:32;;;;;;;;;26.33;24.67;;;;;;;;5002600;28;45439;-78
2024/03/21 04:39:57;;;;;;;;;26.00;25.67;;;;;;;;4984729;28;46517;-78
2024/03/21 04:42:22;;;;;;;;;27.00;25.00;;;;;;;;4984203;28;48333;-79
2024/03/21 04:44:48;;;;;;;;;23.67;23.33;;;;;;;;5002305;28;45335;-79
2024/03/21 04:47:13;;;;;;;;;29.67;28.33;;;;;;;;5002417;28;45506;-79
2024/03/21 04:49:38;;;;;;;;;31.33;28.00;;;;;;;;5002071;28;45329;-78
2024/03/21 04:52:03;;;;;;;;;28.00;26.33;;;;;;;;5001945;28;46318;-79
2024/03/21 04:54:29;;;;;;;;;31.67;28.33;;;;;;;;4984465;28;45281;-79
2024/03/21 04:56:56;;;;;;;;;30.67;30.67;;;;;;;;5005953;28;45344;-78
2024/03/21 04:59:21;;;;;;;;;29.33;27.00;;;;;;;;5021706;28;45498;-79
2024/03/21 05:01:47;;;;;;;;;30.33;29.00;;;;;;;;5021745;28;45513;-78
2024/03/21 05:04:12;;;;;;;;;29.00;27.33;;;;;;;;5003886;28;45336;-79
2024/03/21 05:06:37;;;;;;;;;30.67;29.00;;;;;;;;5021998;28;45299;-78
2024/03/21 05:09:02;;;;;;;;;31.00;28.67;;;;;;;;5021815;28;45424;-79
2024/03/21 05:11:28;;;;;;;;;27.33;27.00;;;;;;;;5006515;28;45429;-79
2024/03/21 05:13:53;;;;;;;;;29.33;27.67;;;;;;;;5001796;28;45370;-78
2024/03/21 05:16:18;;;;;;;;;29.00;27.00;;;;;;;;5001231;28;45428;-78
2024/03/21 05:18:44;;;;;;;;;31.00;28.00;;;;;;;;4983464;28;46457;-79
2024/03/21 05:21:09;;;;;;;;;33.33;29.67;;;;;;;;4983832;28;47410;-79
2024/03/21 05:23:35;;;;;;;;;34.00;29.00;;;;;;;;4983764;28;45414;-78
2024/03/21 05:26:00;;;;;;;;;34.33;31.00;;;;;;;;5001622;28;45828;-78
2024/03/21 05:28:27;;;;;;;;;30.67;28.33;;;;;;;;5001523;28;45367;-78
2024/03/21 05:30:52;;;;;;;;;29.33;28.67;;;;;;;;5000884;28;46012;-78
2024/03/21 05:33:17;;;;;;;;;28.67;26.33;;;;;;;;5001454;28;45262;-78
2024/03/21 05:35:42;;;;;;;;;32.00;31.00;;;;;;;;4983914;28;45188;-79
2024/03/21 05:38:07;;;;;;;;;32.00;31.00;;;;;;;;5001465;28;45440;-78
2024/03/21 05:40:33;;;;;;;;;29.67;26.67;;;;;;;;5001233;28;45302;-78
2024/03/21 05:42:58;;;;;;;;;22.67;20.67;;;;;;;;5001553;28;45245;-78
2024/03/21 05:45:23;;;;;;;;;31.33;30.67;;;;;;;;4983728;28;45255;-78
2024/03/21 05:47:48;;;;;;;;;33.00;30.33;;;;;;;;5001313;28;45244;-78
2024/03/21 05:50:13;;;;;;;;;23.00;20.00;;;;;;;;4983396;28;47162;-78
2024/03/21 05:52:39;;;;;;;;;34.00;29.67;;;;;;;;5001288;28;45338;-78
2024/03/21 05:55:04;;;;;;;;;36.67;30.00;;;;;;;;5001386;28;45335;-78
2024/03/21 05:57:29;;;;;;;;;35.33;31.33;;;;;;;;5009602;28;45392;-78
2024/03/21 05:59:54;;;;;;;;;34.33;31.33;;;;;;;;5002875;28;47432;-78
2024/03/21 06:02:20;;;;;;;;;38.00;32.33;;;;;;;;5020817;28;45305;-78
2024/03/21 06:04:45;;;;;;;;;30.33;29.67;;;;;;;;5003088;28;45301;-78
2024/03/21 06:07:10;;;;;;;;;36.33;33.67;;;;;;;;5020873;28;45277;-78
2024/03/21 06:09:35;;;;;;;;;34.00;30.33;;;;;;;;5002652;28;45401;-78
2024/03/21 06:12:00;;;;;;;;;35.67;31.00;;;;;;;;5002413;28;45211;-78
2024/03/21 06:14:26;;;;;;;;;34.67;31.00;;;;;;;;5013547;28;45574;-78
2024/03/21 06:16:51;;;;;;;;;38.00;32.33;;;;;;;;5000395;28;45469;-78
2024/03/21 06:19:16;;;;;;;;;32.33;28.67;;;;;;;;5000339;28;45351;-78
2024/03/21 06:21:42;;;;;;;;;37.33;33.33;;;;;;;;4982608;28;45333;-78
2024/03/21 06:24:07;;;;;;;;;36.33;33.33;;;;;;;;4982969;28;45308;-78
2024/03/21 06:26:32;;;;;;;;;28.67;27.33;;;;;;;;5000404;28;45265;-78
2024/03/21 06:28:57;;;;;;;;;35.00;32.33;;;;;;;;5000594;28;45328;-78
2024/03/21 06:31:22;;;;;;;;;30.00;29.00;;;;;;;;5000627;28;45353;-78
2024/03/21 06:33:48;;;;;;;;;38.67;35.00;;;;;;;;4982785;28;45311;-79
2024/03/21 06:36:13;;;;;;;;;34.33;32.00;;;;;;;;4983054;28;46146;-79
2024/03/21 06:38:38;;;;;;;;;34.67;31.00;;;;;;;;4982678;28;47187;-80
2024/03/21 06:41:03;;;;;;;;;32.33;31.00;;;;;;;;5000217;28;45481;-79
2024/03/21 06:43:28;;;;;;;;;39.33;33.00;;;;;;;;4999800;28;45637;-80
2024/03/21 06:45:57;;;;;;;;;32.00;31.00;;;;;;;;5000457;28;45254;-79
2024/03/21 06:48:22;;;;;;;;;38.00;34.00;;;;;;;;4982440;28;47107;-79
2024/03/21 06:50:48;;;;;;;;;34.33;32.00;;;;;;;;5000254;28;45357;-79
2024/03/21 06:53:13;;;;;;;;;34.00;32.00;;;;;;;;4982886;28;45335;-79
2024/03/21 06:55:38;;;;;;;;;37.00;33.00;;;;;;;;4999950;28;45330;-78
2024/03/21 06:58:03;;;;;;;;;32.00;30.33;;;;;;;;5013260;28;45449;-78
2024/03/21 07:00:29;;;;;;;;;36.00;31.33;;;;;;;;5002157;28;45305;-78
2024/03/21 07:02:55;;;;;;;;;35.00;32.33;;;;;;;;5020212;28;45241;-78
2024/03/21 07:05:20;;;;;;;;;39.33;32.00;;;;;;;;5019704;28;45407;-77
2024/03/21 07:07:45;;;;;;;;;37.00;33.67;;;;;;;;5005411;28;45399;-75
2024/03/21 07:10:10;;;;;;;;;34.33;30.67;;;;;;;;4982680;28;45312;-74
2024/03/21 07:12:36;;;;;;;;;33.33;31.00;;;;;;;;5001386;28;45382;-74
2024/03/21 07:15:04;;;;;;;;;40.00;33.67;;;;;;;;5000099;28;45568;-74
2024/03/21 07:17:30;;;;;;;;;35.67;33.00;;;;;;;;4999843;28;45528;-74
2024/03/21 07:19:55;;;;;;;;;37.33;33.00;;;;;;;;4981862;28;45707;-75
2024/03/21 07:22:20;;;;;;;;;38.00;33.00;;;;;;;;4999997;28;45473;-74
2024/03/21 07:24:45;;;;;;;;;34.33;31.67;;;;;;;;4982151;28;47034;-75
2024/03/21 07:27:11;;;;;;;;;35.33;32.33;;;;;;;;5000515;28;45363;-75
2024/03/21 07:29:36;;;;;;;;;39.00;33.00;;;;;;;;5000055;28;45399;-76
2024/03/21 07:32:04;;;;;;;;;41.00;33.67;;;;;;;;4980908;28;45321;-76
2024/03/21 07:34:30;;;;;;;;;44.67;37.00;;;;;;;;5001186;28;45189;-74
2024/03/21 07:36:55;;;;;;;;;38.00;34.00;;;;;;;;5003131;28;46233;-74
2024/03/21 07:39:20;;;;;;;;;44.67;36.67;;;;;;;;5002529;28;45947;-75
2024/03/21 07:41:46;;;;;;;;;41.67;35.33;;;;;;;;5001729;28;45358;-75
2024/03/21 07:44:11;;;;;;;;;44.67;36.33;;;;;;;;5005754;28;45317;-75
2024/03/21 07:46:36;;;;;;;;;41.00;35.33;;;;;;;;5008390;28;45025;-75
2024/03/21 07:49:01;;;;;;;;;39.67;34.33;;;;;;;;5004873;28;45318;-74
2024/03/21 07:51:27;;;;;;;;;45.33;36.67;;;;;;;;5006880;28;45305;-75
2024/03/21 07:53:55;;;;;;;;;47.50;39.25;;;;;;;;5002376;28;45443;-76
2024/03/21 07:56:20;;;;;;;;;46.33;38.67;;;;;;;;5000389;28;46167;-75
2024/03/21 07:58:45;;;;;;;;;48.00;40.33;;;;;;;;5002278;28;45294;-77
2024/03/21 08:01:11;;;;;;;;;46.75;39.75;;;;;;;;4995728;28;45308;-74
2024/03/21 08:03:36;;;;;;;;;56.00;45.50;;;;;;;;4965629;28;46163;-75
2024/03/21 08:06:01;;;;;;;;;53.50;44.00;;;;;;;;4982170;28;45352;-75
2024/03/21 08:08:26;;;;;;;;;59.50;46.50;;;;;;;;4966556;28;45972;-75
2024/03/21 08:10:51;;;;;;;;;61.25;49.50;;;;;;;;4984016;28;45286;-74
2024/03/21 08:13:16;;;;;;;;;63.00;49.00;;;;;;;;4981961;28;45374;-74
2024/03/21 08:15:42;;;;;;;;;61.00;47.75;;;;;;;;4963681;28;47334;-76
2024/03/21 08:18:07;;;;;;;;;58.00;47.75;;;;;;;;4976870;28;45271;-76
2024/03/21 08:20:32;;;;;;;;;59.25;47.50;;;;;;;;4995078;28;45436;-76
2024/03/21 08:22:58;;;;;;;;;60.50;48.25;;;;;;;;4976361;28;46048;-76
2024/03/21 08:25:23;;;;;;;;;58.75;46.25;;;;;;;;4986781;28;46187;-76
2024/03/21 08:27:48;;;;;;;;;62.00;48.25;;;;;;;;5003968;28;45339;-76
2024/03/21 08:30:14;;;;;;;;;61.75;49.75;;;;;;;;4995907;28;45309;-76
2024/03/21 08:32:39;;;;;;;;;61.50;49.00;;;;;;;;5012368;28;45258;-76
2024/03/21 08:35:05;;;;;;;;;60.50;49.75;;;;;;;;5010643;28;46317;-77
2024/03/21 08:37:30;;;;;;;;;66.00;52.25;;;;;;;;5006812;28;45256;-77
2024/03/21 08:39:57;;;;;;;;;87.00;79.25;;;;;;;;5001249;28;45364;-76
2024/03/21 08:42:22;;;;;;;;;62.50;50.75;;;;;;;;4999049;28;45348;-77
2024/03/21 08:44:48;;;;;;;;;64.25;50.75;;;;;;;;4983580;28;46903;-76
2024/03/21 08:47:13;;;;;;;;;63.00;51.75;;;;;;;;5003074;28;45339;-77
2024/03/21 08:49:38;;;;;;;;;61.25;50.00;;;;;;;;4999550;28;45435;-76
2024/03/21 08:52:03;;;;;;;;;62.25;50.25;;;;;;;;5000205;28;45523;-77
2024/03/21 08:54:29;;;;;;;;;76.00;66.75;;;;;;;;4981061;28;47280;-77
2024/03/21 08:56:55;;;;;;;;;62.00;50.25;;;;;;;;4999495;28;45218;-76
2024/03/21 08:59:20;;;;;;;;;60.25;49.00;;;;;;;;4983992;28;45434;-76
2024/03/21 09:01:45;;;;;;;;;61.50;50.00;;;;;;;;4981013;28;46523;-77
2024/03/21 09:04:11;;;;;;;;;62.25;49.00;;;;;;;;5000015;28;45330;-76
2024/03/21 09:06:36;;;;;;;;;67.00;52.00;;;;;;;;5002442;28;45262;-75
2024/03/21 09:09:05;;;;;;;;;59.00;45.75;;;;;;;;5001920;28;45499;-75
2024/03/21 09:11:30;;;;;;;;;62.00;49.75;;;;;;;;5001658;28;45270;-74
2024/03/21 09:13:57;;;;;;;;;63.50;50.75;;;;;;;;5002021;28;45191;-76
2024/03/21 09:16:23;;;;;;;;;71.50;56.75;;;;;;;;5002533;28;45330;-76
2024/03/21 09:18:48;;;;;;;;;60.25;49.75;;;;;;;;4984625;28;45492;-76
2024/03/21 09:21:13;;;;;;;;;63.00;50.00;;;;;;;;5002059;28;45280;-76
2024/03/21 09:23:38;;;;;;;;;60.00;47.00;;;;;;;;4984923;28;47223;-76
2024/03/21 09:26:04;;;;;;;;;57.50;46.00;;;;;;;;4983862;28;45338;-76
2024/03/21 09:28:29;;;;;;;;;59.00;46.75;;;;;;;;5001975;28;45647;-76
2024/03/21 09:30:54;;;;;;;;;66.25;55.50;;;;;;;;5001789;28;45507;-76
2024/03/21 09:33:20;;;;;;;;;67.00;53.50;;;;;;;;4983999;28;47540;-76
2024/03/21 09:35:54;;;;;;;;;62.75;50.00;;;;;;;;5002050;28;45389;-76
2024/03/21 09:38:20;;;;;;;;;75.50;68.25;;;;;;;;4983968;28;45358;-76
2024/03/21 09:40:46;;;;;;;;;54.00;43.00;;;;;;;;5001961;28;45364;-76
2024/03/21 09:43:11;;;;;;;;;54.67;44.00;;;;;;;;5002442;28;45345;-76
2024/03/21 09:45:38;;;;;;;;;52.67;41.67;;;;;;;;5002474;28;45285;-76
2024/03/21 09:48:03;;;;;;;;;54.75;45.00;;;;;;;;4984053;28;45343;-76
2024/03/21 09:50:28;;;;;;;;;55.00;44.00;;;;;;;;5001044;28;45585;-76
2024/03/21 09:52:54;;;;;;;;;50.25;40.50;;;;;;;;4984795;28;48090;-76
2024/03/21 09:55:20;;;;;;;;;54.50;44.00;;;;;;;;4983799;28;45254;-75
2024/03/21 09:57:45;;;;;;;;;49.67;39.67;;;;;;;;5012131;28;45223;-76
2024/03/21 10:00:12;;;;;;;;;57.50;44.75;;;;;;;;5004505;28;46892;-75
2024/03/21 10:02:40;;;;;;;;;57.25;45.75;;;;;;;;5003637;28;47453;-76
2024/03/21 10:05:08;;;;;;;;;56.75;46.00;;;;;;;;5002965;28;45335;-76
2024/03/21 10:07:36;;;;;;;;;52.25;42.25;;;;;;;;5021343;28;45337;-77
2024/03/21 10:10:02;;;;;;;;;55.25;44.50;;;;;;;;5021950;28;45343;-75
2024/03/21 10:12:27;;;;;;;;;53.33;42.67;;;;;;;;5022491;28;45392;-76
2024/03/21 10:14:56;;;;;;;;;57.25;47.00;;;;;;;;5024070;28;45420;-75
2024/03/21 10:17:22;;;;;;;;;53.25;42.75;;;;;;;;5024884;28;45402;-75
2024/03/21 10:19:47;;;;;;;;;55.67;44.00;;;;;;;;5025540;28;45271;-76
2024/03/21 10:22:19;;;;;;;;;60.00;48.00;;;;;;;;5026188;28;45482;-77
2024/03/21 10:24:49;;;;;;;;;53.00;43.00;;;;;;;;5024521;28;45293;-76
2024/03/21 10:27:16;;;;;;;;;53.00;43.33;;;;;;;;5012331;28;45266;-76
2024/03/21 10:29:41;;;;;;;;;50.67;42.33;;;;;;;;5031621;28;45237;-76
2024/03/21 10:32:13;;;;;;;;;50.33;41.67;;;;;;;;5028251;28;46138;-77
2024/03/21 10:34:39;;;;;;;;;53.00;43.00;;;;;;;;5010691;28;45352;-77
2024/03/21 10:37:06;;;;;;;;;51.50;43.00;;;;;;;;5026208;28;45298;-76
2024/03/21 10:39:31;;;;;;;;;49.33;41.00;;;;;;;;5025768;28;45236;-77
2024/03/21 10:41:57;;;;;;;;;53.67;44.00;;;;;;;;5006574;28;48077;-76
2024/03/21 10:44:22;;;;;;;;;49.67;41.33;;;;;;;;5025475;28;45377;-76
2024/03/21 10:46:47;;;;;;;;;49.00;41.33;;;;;;;;5028842;28;45273;-76
2024/03/21 10:49:14;;;;;;;;;56.33;44.33;;;;;;;;5025025;28;45348;-74
2024/03/21 10:51:40;;;;;;;;;55.25;45.00;;;;;;;;5021161;28;45752;-76
2024/03/21 10:54:05;;;;;;;;;53.33;42.67;;;;;;;;4986113;28;45402;-77
2024/03/21 10:56:37;;;;;;;;;56.33;45.00;;;;;;;;4987666;28;45322;-77
2024/03/21 10:59:02;;;;;;;;;54.25;44.50;;;;;;;;5007404;28;45585;-78
2024/03/21 11:01:32;;;;;;;;;54.00;44.33;;;;;;;;5006302;28;45454;-78
2024/03/21 11:04:01;;;;;;;;;54.67;44.67;;;;;;;;5011470;28;45395;-78
2024/03/21 11:06:29;;;;;;;;;51.33;42.00;;;;;;;;5010560;28;45212;-78
2024/03/21 11:08:54;;;;;;;;;50.00;42.00;;;;;;;;4992564;28;46449;-77
2024/03/21 11:11:20;;;;;;;;;49.33;41.33;;;;;;;;5003977;28;45504;-77
2024/03/21 11:13:45;;;;;;;;;51.33;42.00;;;;;;;;5003639;28;45310;-77
2024/03/21 11:16:10;;;;;;;;;48.00;40.00;;;;;;;;4993826;28;44726;-78
2024/03/21 11:18:36;;;;;;;;;55.00;44.67;;;;;;;;5007905;28;45298;-77
2024/03/21 11:21:01;;;;;;;;;51.67;42.33;;;;;;;;5004270;28;46378;-75
2024/03/21 11:23:26;;;;;;;;;52.67;42.67;;;;;;;;5008865;28;45337;-77
2024/03/21 11:25:52;;;;;;;;;50.00;41.00;;;;;;;;5010202;28;45321;-76
2024/03/21 11:28:17;;;;;;;;;48.67;40.67;;;;;;;;5004445;28;45297;-75
2024/03/21 11:30:43;;;;;;;;;53.00;42.00;;;;;;;;4989621;28;48087;-77
2024/03/21 11:33:09;;;;;;;;;58.25;47.50;;;;;;;;5005672;28;45246;-76
2024/03/21 11:35:37;;;;;;;;;49.33;40.67;;;;;;;;4989392;28;45263;-77
2024/03/21 11:38:02;;;;;;;;;51.33;42.33;;;;;;;;5007184;28;45530;-75
2024/03/21 11:40:28;;;;;;;;;50.33;41.33;;;;;;;;5006119;28;46279;-76
2024/03/21 11:42:53;;;;;;;;;44.33;37.33;;;;;;;;5006584;28;45381;-78
2024/03/21 11:45:19;;;;;;;;;45.67;37.00;;;;;;;;5006154;28;45428;-78
2024/03/21 11:47:44;;;;;;;;;42.67;36.00;;;;;;;;5007163;28;45494;-77
2024/03/21 11:50:09;;;;;;;;;46.00;38.67;;;;;;;;5006678;28;46304;-77
2024/03/21 11:52:34;;;;;;;;;45.67;39.33;;;;;;;;5011888;28;45342;-78
2024/03/21 11:55:00;;;;;;;;;46.33;38.33;;;;;;;;5004827;28;46692;-77
2024/03/21 11:57:25;;;;;;;;;47.33;40.00;;;;;;;;5003919;28;45636;-77
2024/03/21 11:59:50;;;;;;;;;43.67;36.00;;;;;;;;5001335;28;46096;-77
2024/03/21 12:02:19;;;;;;;;;46.00;38.67;;;;;;;;4981141;28;45932;-77
2024/03/21 12:04:44;;;;;;;;;41.67;35.67;;;;;;;;5000553;28;45404;-77
2024/03/21 12:07:10;;;;;;;;;45.00;37.00;;;;;;;;5005920;28;45874;-77
2024/03/21 12:09:35;;;;;;;;;41.33;34.33;;;;;;;;4992556;28;45225;-77
2024/03/21 12:12:01;;;;;;;;;43.67;35.67;;;;;;;;5003513;28;45275;-77
2024/03/21 12:14:26;;;;;;;;;40.00;33.67;;;;;;;;4988816;28;45192;-79
2024/03/21 12:16:51;;;;;;;;;41.00;35.00;;;;;;;;5008208;28;45489;-76
2024/03/21 12:19:17;;;;;;;;;42.67;36.00;;;;;;;;4998165;28;45459;-77
2024/03/21 12:21:42;;;;;;;;;41.67;34.67;;;;;;;;4998888;28;45364;-77
2024/03/21 12:24:07;;;;;;;;;39.67;34.33;;;;;;;;4998764;28;45457;-76
2024/03/21 12:26:32;;;;;;;;;39.67;34.67;;;;;;;;5004322;28;45526;-79
2024/03/21 12:29:00;;;;;;;;;41.67;35.67;;;;;;;;4988620;28;48394;-77
2024/03/21 12:31:25;;;;;;;;;43.33;35.67;;;;;;;;4995928;28;46182;-76
2024/03/21 12:33:52;;;;;;;;;39.67;34.33;;;;;;;;4994496;28;45354;-75
2024/03/21 12:36:20;;;;;;;;;36.00;32.33;;;;;;;;5012073;28;45144;-77
2024/03/21 12:38:46;;;;;;;;;37.33;33.00;;;;;;;;4999496;28;45303;-76
2024/03/21 12:41:14;;;;;;;;;40.00;33.00;;;;;;;;5004972;28;45659;-77
2024/03/21 12:43:40;;;;;;;;;33.00;29.67;;;;;;;;4996380;28;45426;-77
2024/03/21 12:46:05;;;;;;;;;36.33;32.00;;;;;;;;5000296;28;46267;-78
2024/03/21 12:48:30;;;;;;;;;37.00;31.67;;;;;;;;4998580;28;45506;-77
2024/03/21 12:50:56;;;;;;;;;32.67;30.00;;;;;;;;5013277;28;45366;-77
2024/03/21 12:53:21;;;;;;;;;34.33;31.00;;;;;;;;4989905;28;45368;-78
2024/03/21 12:55:47;;;;;;;;;34.00;31.00;;;;;;;;5012548;28;45495;-77
2024/03/21 12:58:13;;;;;;;;;34.67;31.00;;;;;;;;5013908;28;46480;-77
2024/03/21 13:00:38;;;;;;;;;32.00;30.00;;;;;;;;4991877;28;45752;-78
2024/03/21 13:03:04;;;;;;;;;34.00;31.00;;;;;;;;4996511;28;44619;-78
2024/03/21 13:05:29;;;;;;;;;31.33;28.67;;;;;;;;5014037;28;45448;-77
2024/03/21 13:07:54;;;;;;;;;29.00;27.67;;;;;;;;5006271;28;45270;-77
2024/03/21 13:10:20;;;;;;;;;31.33;29.00;;;;;;;;5005271;28;45542;-77
2024/03/21 13:12:45;;;;;;;;;28.33;27.33;;;;;;;;5009667;28;45309;-78
2024/03/21 13:15:10;;;;;;;;;30.33;27.00;;;;;;;;4996818;28;46225;-77
2024/03/21 13:17:35;;;;;;;;;30.67;28.67;;;;;;;;5011534;28;46363;-77
2024/03/21 13:20:00;;;;;;;;;29.33;28.00;;;;;;;;5005091;28;45824;-76
2024/03/21 13:22:26;;;;;;;;;23.33;23.00;;;;;;;;5035635;28;45268;-77
2024/03/21 13:24:53;;;;;;;;;28.33;26.67;;;;;;;;5035156;28;45275;-77
2024/03/21 13:27:21;;;;;;;;;31.33;27.67;;;;;;;;5015833;28;46016;-77
2024/03/21 13:29:46;;;;;;;;;25.67;25.67;;;;;;;;4997130;28;45908;-77
2024/03/21 13:32:12;;;;;;;;;30.33;27.00;;;;;;;;5013179;28;45217;-77
2024/03/21 13:34:37;;;;;;;;;24.33;24.33;;;;;;;;5011708;28;45243;-77
2024/03/21 13:37:02;;;;;;;;;26.33;25.33;;;;;;;;5010980;28;46140;-77
2024/03/21 13:39:27;;;;;;;;;27.67;26.67;;;;;;;;5012553;28;45286;-78
2024/03/21 13:41:52;;;;;;;;;26.00;25.67;;;;;;;;5012589;28;45229;-77
2024/03/21 13:44:19;;;;;;;;;27.33;26.00;;;;;;;;5010908;28;45223;-78
2024/03/21 13:46:46;;;;;;;;;26.00;26.00;;;;;;;;5009523;28;45281;-78
2024/03/21 13:49:11;;;;;;;;;25.00;25.00;;;;;;;;5006873;28;45258;-78
2024/03/21 13:51:36;;;;;;;;;25.67;25.67;;;;;;;;4984726;28;45598;-75
2024/03/21 13:54:03;;;;;;;;;23.67;23.00;;;;;;;;4983261;28;46331;-75
2024/03/21 13:56:28;;;;;;;;;24.67;24.33;;;;;;;;4985082;28;47471;-76
2024/03/21 13:58:54;;;;;;;;;27.00;24.67;;;;;;;;5003393;28;45321;-75
2024/03/21 14:01:19;;;;;;;;;27.00;25.33;;;;;;;;5021278;28;45392;-75
2024/03/21 14:03:44;;;;;;;;;30.33;27.67;;;;;;;;5021049;28;45345;-75
2024/03/21 14:06:16;;;;;;;;;24.00;23.00;;;;;;;;5020996;28;45443;-76
2024/03/21 14:08:41;;;;;;;;;24.33;23.00;;;;;;;;5021471;28;45317;-75
2024/03/21 14:11:09;;;;;;;;;22.00;22.00;;;;;;;;5012814;28;45484;-76
2024/03/21 14:13:34;;;;;;;;;22.33;22.33;;;;;;;;4983630;28;46489;-75